sensor_id;sensor_type;location;lat;lon;timestamp;P1;durP1;ratioP1;P2;durP2;ratioP2
30233;SDS011;17046;52.074;4.748;2022-10-28T00:01:14;17.00;;;10.90;;
30233;SDS011;17046;52.074;4.748;2022-10-28T00:03:48;18.50;;;11.70;;
30233;SDS011;17046;52.074;4.748;2022-10-28T00:06:17;20.13;;;11.37;;
30233;SDS011;17046;52.074;4.748;2022-10-28T00:08:53;18.90;;;12.40;;
30233;SDS011;17046;52.074;4.748;2022-10-28T00:11:19;23.93;;;11.70;;
30233;SDS011;17046;52.074;4.748;2022-10-28T00:13:46;22.63;;;12.00;;
30233;SDS011;17046;52.074;4.748;2022-10-28T00:16:20;22.07;;;12.10;;
30233;SDS011;17046;52.074;4.748;2022-10-28T00:18:47;22.60;;;13.20;;
30233;SDS011;17046;52.074;4.748;2022-10-28T00:21:17;21.03;;;11.87;;
30233;SDS011;17046;52.074;4.748;2022-10-28T00:23:53;24.30;;;12.37;;
30233;SDS011;17046;52.074;4.748;2022-10-28T00:26:20;21.50;;;12.00;;
30233;SDS011;17046;52.074;4.748;2022-10-28T00:28:51;20.73;;;13.07;;
30233;SDS011;17046;52.074;4.748;2022-10-28T00:31:22;20.97;;;12.37;;
30233;SDS011;17046;52.074;4.748;2022-10-28T00:33:49;23.20;;;12.57;;
30233;SDS011;17046;52.074;4.748;2022-10-28T00:36:16;19.93;;;12.50;;
30233;SDS011;17046;52.074;4.748;2022-10-28T00:38:44;22.17;;;12.47;;
30233;SDS011;17046;52.074;4.748;2022-10-28T00:41:12;25.60;;;12.90;;
30233;SDS011;17046;52.074;4.748;2022-10-28T00:43:42;22.07;;;12.93;;
30233;SDS011;17046;52.074;4.748;2022-10-28T00:46:19;24.57;;;12.77;;
30233;SDS011;17046;52.074;4.748;2022-10-28T00:48:51;20.87;;;12.93;;
30233;SDS011;17046;52.074;4.748;2022-10-28T00:51:21;23.40;;;13.17;;
30233;SDS011;17046;52.074;4.748;2022-10-28T00:53:47;21.20;;;12.70;;
30233;SDS011;17046;52.074;4.748;2022-10-28T00:56:15;22.90;;;13.30;;
30233;SDS011;17046;52.074;4.748;2022-10-28T00:58:41;23.30;;;13.23;;
30233;SDS011;17046;52.074;4.748;2022-10-28T01:01:08;23.93;;;12.73;;
30233;SDS011;17046;52.074;4.748;2022-10-28T01:03:35;25.20;;;13.23;;
30233;SDS011;17046;52.074;4.748;2022-10-28T01:06:01;24.07;;;12.73;;
30233;SDS011;17046;52.074;4.748;2022-10-28T01:08:26;21.63;;;13.10;;
30233;SDS011;17046;52.074;4.748;2022-10-28T01:16:05;29.73;;;15.80;;
30233;SDS011;17046;52.074;4.748;2022-10-28T01:24:42;23.50;;;13.90;;
30233;SDS011;17046;52.074;4.748;2022-10-28T01:30:18;28.63;;;15.07;;
30233;SDS011;17046;52.074;4.748;2022-10-28T01:46:14;27.60;;;15.10;;
30233;SDS011;17046;52.074;4.748;2022-10-28T01:48:47;27.30;;;15.13;;
30233;SDS011;17046;52.074;4.748;2022-10-28T01:51:20;26.20;;;14.90;;
30233;SDS011;17046;52.074;4.748;2022-10-28T01:53:55;26.93;;;14.70;;
30233;SDS011;17046;52.074;4.748;2022-10-28T01:56:25;25.60;;;15.43;;
30233;SDS011;17046;52.074;4.748;2022-10-28T01:58:55;25.90;;;14.30;;
30233;SDS011;17046;52.074;4.748;2022-10-28T02:01:23;27.17;;;14.57;;
30233;SDS011;17046;52.074;4.748;2022-10-28T02:03:51;27.93;;;13.83;;
30233;SDS011;17046;52.074;4.748;2022-10-28T02:06:19;27.60;;;14.10;;
30233;SDS011;17046;52.074;4.748;2022-10-28T02:08:52;22.20;;;13.07;;
30233;SDS011;17046;52.074;4.748;2022-10-28T02:11:52;19.40;;;13.13;;
30233;SDS011;17046;52.074;4.748;2022-10-28T02:19:37;24.47;;;13.63;;
30233;SDS011;17046;52.074;4.748;2022-10-28T02:22:19;28.53;;;15.00;;
30233;SDS011;17046;52.074;4.748;2022-10-28T02:27:30;21.93;;;13.50;;
30233;SDS011;17046;52.074;4.748;2022-10-28T02:30:21;27.47;;;14.10;;
30233;SDS011;17046;52.074;4.748;2022-10-28T02:32:52;24.60;;;13.73;;
30233;SDS011;17046;52.074;4.748;2022-10-28T02:35:24;26.50;;;14.50;;
30233;SDS011;17046;52.074;4.748;2022-10-28T02:38:14;22.60;;;14.07;;
30233;SDS011;17046;52.074;4.748;2022-10-28T02:40:44;22.60;;;13.93;;
30233;SDS011;17046;52.074;4.748;2022-10-28T02:43:16;22.93;;;13.87;;
30233;SDS011;17046;52.074;4.748;2022-10-28T02:45:44;24.57;;;13.67;;
30233;SDS011;17046;52.074;4.748;2022-10-28T02:50:42;25.00;;;13.97;;
30233;SDS011;17046;52.074;4.748;2022-10-28T02:53:23;24.47;;;14.27;;
30233;SDS011;17046;52.074;4.748;2022-10-28T02:55:54;29.33;;;15.37;;
30233;SDS011;17046;52.074;4.748;2022-10-28T02:58:23;25.83;;;13.80;;
30233;SDS011;17046;52.074;4.748;2022-10-28T03:00:49;27.50;;;14.23;;
30233;SDS011;17046;52.074;4.748;2022-10-28T03:03:15;26.60;;;14.10;;
30233;SDS011;17046;52.074;4.748;2022-10-28T03:05:41;28.20;;;13.27;;
30233;SDS011;17046;52.074;4.748;2022-10-28T03:08:06;23.97;;;13.47;;
30233;SDS011;17046;52.074;4.748;2022-10-28T03:10:32;22.87;;;12.03;;
30233;SDS011;17046;52.074;4.748;2022-10-28T03:12:58;22.33;;;12.10;;
30233;SDS011;17046;52.074;4.748;2022-10-28T03:15:23;22.63;;;13.20;;
30233;SDS011;17046;52.074;4.748;2022-10-28T03:17:49;22.77;;;13.07;;
30233;SDS011;17046;52.074;4.748;2022-10-28T03:20:15;27.23;;;13.10;;
30233;SDS011;17046;52.074;4.748;2022-10-28T03:22:43;23.13;;;13.43;;
30233;SDS011;17046;52.074;4.748;2022-10-28T03:25:09;28.60;;;14.83;;
30233;SDS011;17046;52.074;4.748;2022-10-28T03:27:35;25.83;;;13.40;;
30233;SDS011;17046;52.074;4.748;2022-10-28T03:30:04;21.43;;;13.73;;
30233;SDS011;17046;52.074;4.748;2022-10-28T03:32:30;26.60;;;13.70;;
30233;SDS011;17046;52.074;4.748;2022-10-28T03:34:55;27.07;;;14.43;;
30233;SDS011;17046;52.074;4.748;2022-10-28T03:37:21;22.47;;;13.53;;
30233;SDS011;17046;52.074;4.748;2022-10-28T03:39:46;24.37;;;13.80;;
30233;SDS011;17046;52.074;4.748;2022-10-28T03:42:12;23.53;;;13.27;;
30233;SDS011;17046;52.074;4.748;2022-10-28T03:44:37;26.07;;;13.57;;
30233;SDS011;17046;52.074;4.748;2022-10-28T03:47:03;20.17;;;12.57;;
30233;SDS011;17046;52.074;4.748;2022-10-28T03:49:28;23.47;;;13.47;;
30233;SDS011;17046;52.074;4.748;2022-10-28T03:51:54;24.03;;;12.43;;
30233;SDS011;17046;52.074;4.748;2022-10-28T03:54:19;26.73;;;12.57;;
30233;SDS011;17046;52.074;4.748;2022-10-28T03:56:45;23.17;;;12.97;;
30233;SDS011;17046;52.074;4.748;2022-10-28T03:59:10;24.27;;;12.77;;
30233;SDS011;17046;52.074;4.748;2022-10-28T04:01:36;24.00;;;13.30;;
30233;SDS011;17046;52.074;4.748;2022-10-28T04:04:02;21.77;;;12.37;;
30233;SDS011;17046;52.074;4.748;2022-10-28T04:06:27;23.23;;;11.93;;
30233;SDS011;17046;52.074;4.748;2022-10-28T04:08:53;24.20;;;12.03;;
30233;SDS011;17046;52.074;4.748;2022-10-28T04:11:18;24.97;;;12.20;;
30233;SDS011;17046;52.074;4.748;2022-10-28T04:13:44;21.20;;;11.87;;
30233;SDS011;17046;52.074;4.748;2022-10-28T04:16:09;20.03;;;11.67;;
30233;SDS011;17046;52.074;4.748;2022-10-28T04:18:35;25.70;;;11.57;;
30233;SDS011;17046;52.074;4.748;2022-10-28T04:21:01;24.23;;;12.20;;
30233;SDS011;17046;52.074;4.748;2022-10-28T04:23:26;23.07;;;11.70;;
30233;SDS011;17046;52.074;4.748;2022-10-28T04:25:53;22.93;;;11.73;;
30233;SDS011;17046;52.074;4.748;2022-10-28T04:28:19;24.87;;;12.27;;
30233;SDS011;17046;52.074;4.748;2022-10-28T04:30:47;20.50;;;11.83;;
30233;SDS011;17046;52.074;4.748;2022-10-28T04:33:13;20.10;;;11.37;;
30233;SDS011;17046;52.074;4.748;2022-10-28T04:35:39;21.80;;;11.53;;
30233;SDS011;17046;52.074;4.748;2022-10-28T04:38:07;19.57;;;11.47;;
30233;SDS011;17046;52.074;4.748;2022-10-28T04:40:33;20.03;;;12.30;;
30233;SDS011;17046;52.074;4.748;2022-10-28T04:42:59;22.67;;;10.80;;
30233;SDS011;17046;52.074;4.748;2022-10-28T04:45:24;21.07;;;11.30;;
30233;SDS011;17046;52.074;4.748;2022-10-28T04:47:55;24.87;;;11.67;;
30233;SDS011;17046;52.074;4.748;2022-10-28T04:50:21;23.50;;;11.40;;
30233;SDS011;17046;52.074;4.748;2022-10-28T04:52:47;21.23;;;10.90;;
30233;SDS011;17046;52.074;4.748;2022-10-28T04:55:12;18.10;;;10.27;;
30233;SDS011;17046;52.074;4.748;2022-10-28T04:57:38;25.37;;;11.60;;
30233;SDS011;17046;52.074;4.748;2022-10-28T05:00:04;21.37;;;11.17;;
30233;SDS011;17046;52.074;4.748;2022-10-28T05:02:30;19.93;;;10.83;;
30233;SDS011;17046;52.074;4.748;2022-10-28T05:04:55;18.63;;;10.50;;
30233;SDS011;17046;52.074;4.748;2022-10-28T05:07:24;20.80;;;11.10;;
30233;SDS011;17046;52.074;4.748;2022-10-28T05:09:49;23.50;;;10.83;;
30233;SDS011;17046;52.074;4.748;2022-10-28T05:12:15;17.43;;;10.70;;
30233;SDS011;17046;52.074;4.748;2022-10-28T05:14:40;21.47;;;11.07;;
30233;SDS011;17046;52.074;4.748;2022-10-28T05:17:07;19.20;;;10.33;;
30233;SDS011;17046;52.074;4.748;2022-10-28T05:19:34;19.93;;;9.90;;
30233;SDS011;17046;52.074;4.748;2022-10-28T05:21:59;18.70;;;10.53;;
30233;SDS011;17046;52.074;4.748;2022-10-28T05:24:25;18.10;;;10.50;;
30233;SDS011;17046;52.074;4.748;2022-10-28T05:26:50;21.50;;;10.83;;
30233;SDS011;17046;52.074;4.748;2022-10-28T05:29:16;22.07;;;11.20;;
30233;SDS011;17046;52.074;4.748;2022-10-28T05:31:43;17.93;;;9.80;;
30233;SDS011;17046;52.074;4.748;2022-10-28T05:34:09;19.20;;;10.33;;
30233;SDS011;17046;52.074;4.748;2022-10-28T05:36:34;18.80;;;10.13;;
30233;SDS011;17046;52.074;4.748;2022-10-28T05:39:00;21.20;;;10.60;;
30233;SDS011;17046;52.074;4.748;2022-10-28T05:41:26;19.60;;;10.00;;
30233;SDS011;17046;52.074;4.748;2022-10-28T05:43:51;17.03;;;9.83;;
30233;SDS011;17046;52.074;4.748;2022-10-28T05:46:17;18.27;;;10.13;;
30233;SDS011;17046;52.074;4.748;2022-10-28T05:48:43;18.97;;;10.07;;
30233;SDS011;17046;52.074;4.748;2022-10-28T05:51:08;17.30;;;9.67;;
30233;SDS011;17046;52.074;4.748;2022-10-28T05:53:34;20.67;;;9.73;;
30233;SDS011;17046;52.074;4.748;2022-10-28T05:55:59;17.33;;;9.83;;
30233;SDS011;17046;52.074;4.748;2022-10-28T05:58:25;19.60;;;9.60;;
30233;SDS011;17046;52.074;4.748;2022-10-28T06:00:51;20.70;;;10.00;;
30233;SDS011;17046;52.074;4.748;2022-10-28T06:03:16;19.57;;;9.17;;
30233;SDS011;17046;52.074;4.748;2022-10-28T06:05:42;19.53;;;9.47;;
30233;SDS011;17046;52.074;4.748;2022-10-28T06:08:09;18.30;;;9.40;;
30233;SDS011;17046;52.074;4.748;2022-10-28T06:10:36;21.87;;;9.80;;
30233;SDS011;17046;52.074;4.748;2022-10-28T06:13:02;21.83;;;9.90;;
30233;SDS011;17046;52.074;4.748;2022-10-28T06:15:28;22.03;;;9.03;;
30233;SDS011;17046;52.074;4.748;2022-10-28T06:17:53;20.77;;;8.87;;
30233;SDS011;17046;52.074;4.748;2022-10-28T06:20:19;16.90;;;8.30;;
30233;SDS011;17046;52.074;4.748;2022-10-28T06:22:48;14.90;;;8.70;;
30233;SDS011;17046;52.074;4.748;2022-10-28T06:25:14;17.77;;;9.03;;
30233;SDS011;17046;52.074;4.748;2022-10-28T06:27:40;18.43;;;9.20;;
30233;SDS011;17046;52.074;4.748;2022-10-28T06:30:06;17.33;;;8.60;;
30233;SDS011;17046;52.074;4.748;2022-10-28T06:32:31;19.77;;;8.63;;
30233;SDS011;17046;52.074;4.748;2022-10-28T06:34:57;21.33;;;8.70;;
30233;SDS011;17046;52.074;4.748;2022-10-28T06:37:23;23.20;;;9.07;;
30233;SDS011;17046;52.074;4.748;2022-10-28T06:39:48;21.93;;;9.70;;
30233;SDS011;17046;52.074;4.748;2022-10-28T06:42:16;19.27;;;9.77;;
30233;SDS011;17046;52.074;4.748;2022-10-28T06:44:42;14.70;;;8.60;;
30233;SDS011;17046;52.074;4.748;2022-10-28T06:47:08;17.33;;;8.63;;
30233;SDS011;17046;52.074;4.748;2022-10-28T06:49:33;16.13;;;8.73;;
30233;SDS011;17046;52.074;4.748;2022-10-28T06:51:59;17.97;;;8.93;;
30233;SDS011;17046;52.074;4.748;2022-10-28T06:54:25;15.20;;;8.70;;
30233;SDS011;17046;52.074;4.748;2022-10-28T06:56:50;15.87;;;8.33;;
30233;SDS011;17046;52.074;4.748;2022-10-28T06:59:16;16.63;;;8.77;;
30233;SDS011;17046;52.074;4.748;2022-10-28T07:01:41;15.43;;;8.23;;
30233;SDS011;17046;52.074;4.748;2022-10-28T07:04:09;15.10;;;8.33;;
30233;SDS011;17046;52.074;4.748;2022-10-28T07:06:37;20.23;;;8.30;;
30233;SDS011;17046;52.074;4.748;2022-10-28T07:09:03;17.40;;;8.40;;
30233;SDS011;17046;52.074;4.748;2022-10-28T07:11:29;17.40;;;8.60;;
30233;SDS011;17046;52.074;4.748;2022-10-28T07:13:54;15.03;;;8.33;;
30233;SDS011;17046;52.074;4.748;2022-10-28T07:16:20;14.40;;;8.03;;
30233;SDS011;17046;52.074;4.748;2022-10-28T07:18:45;16.87;;;8.10;;
30233;SDS011;17046;52.074;4.748;2022-10-28T07:21:11;16.67;;;7.93;;
30233;SDS011;17046;52.074;4.748;2022-10-28T07:23:38;14.40;;;8.10;;
30233;SDS011;17046;52.074;4.748;2022-10-28T07:26:03;17.50;;;9.87;;
30233;SDS011;17046;52.074;4.748;2022-10-28T07:28:29;13.90;;;7.87;;
30233;SDS011;17046;52.074;4.748;2022-10-28T07:30:58;12.50;;;7.53;;
30233;SDS011;17046;52.074;4.748;2022-10-28T07:33:25;19.40;;;7.53;;
30233;SDS011;17046;52.074;4.748;2022-10-28T07:35:51;18.83;;;8.83;;
30233;SDS011;17046;52.074;4.748;2022-10-28T07:38:16;17.87;;;7.67;;
30233;SDS011;17046;52.074;4.748;2022-10-28T07:40:42;14.33;;;7.80;;
30233;SDS011;17046;52.074;4.748;2022-10-28T07:43:07;18.60;;;7.87;;
30233;SDS011;17046;52.074;4.748;2022-10-28T07:45:33;14.57;;;7.40;;
30233;SDS011;17046;52.074;4.748;2022-10-28T07:47:59;16.37;;;6.70;;
30233;SDS011;17046;52.074;4.748;2022-10-28T07:50:25;14.50;;;7.57;;
30233;SDS011;17046;52.074;4.748;2022-10-28T07:52:50;13.97;;;7.23;;
30233;SDS011;17046;52.074;4.748;2022-10-28T07:55:16;16.97;;;7.60;;
30233;SDS011;17046;52.074;4.748;2022-10-28T07:57:42;11.07;;;6.43;;
30233;SDS011;17046;52.074;4.748;2022-10-28T08:00:07;14.53;;;7.53;;
30233;SDS011;17046;52.074;4.748;2022-10-28T08:02:33;12.43;;;6.27;;
30233;SDS011;17046;52.074;4.748;2022-10-28T08:04:59;15.57;;;7.23;;
30233;SDS011;17046;52.074;4.748;2022-10-28T08:07:26;18.67;;;8.07;;
30233;SDS011;17046;52.074;4.748;2022-10-28T08:09:52;14.10;;;7.70;;
30233;SDS011;17046;52.074;4.748;2022-10-28T08:12:18;16.27;;;7.50;;
30233;SDS011;17046;52.074;4.748;2022-10-28T08:14:43;16.27;;;7.10;;
30233;SDS011;17046;52.074;4.748;2022-10-28T08:17:09;15.97;;;7.07;;
30233;SDS011;17046;52.074;4.748;2022-10-28T08:19:35;18.87;;;6.93;;
30233;SDS011;17046;52.074;4.748;2022-10-28T08:22:01;15.70;;;7.27;;
30233;SDS011;17046;52.074;4.748;2022-10-28T08:24:27;16.97;;;7.00;;
30233;SDS011;17046;52.074;4.748;2022-10-28T08:26:52;11.50;;;6.17;;
30233;SDS011;17046;52.074;4.748;2022-10-28T08:29:18;16.00;;;6.97;;
30233;SDS011;17046;52.074;4.748;2022-10-28T08:31:44;15.13;;;6.10;;
30233;SDS011;17046;52.074;4.748;2022-10-28T08:34:09;12.83;;;6.73;;
30233;SDS011;17046;52.074;4.748;2022-10-28T08:36:35;16.90;;;6.97;;
30233;SDS011;17046;52.074;4.748;2022-10-28T08:39:00;18.17;;;7.20;;
30233;SDS011;17046;52.074;4.748;2022-10-28T08:41:28;15.07;;;6.40;;
30233;SDS011;17046;52.074;4.748;2022-10-28T08:49:26;15.80;;;7.73;;
30233;SDS011;17046;52.074;4.748;2022-10-28T08:51:57;14.80;;;7.00;;
30233;SDS011;17046;52.074;4.748;2022-10-28T08:56:56;15.47;;;5.83;;
30233;SDS011;17046;52.074;4.748;2022-10-28T08:59:26;17.77;;;6.20;;
30233;SDS011;17046;52.074;4.748;2022-10-28T09:01:58;14.83;;;6.10;;
30233;SDS011;17046;52.074;4.748;2022-10-28T09:07:00;17.30;;;6.87;;
30233;SDS011;17046;52.074;4.748;2022-10-28T09:09:26;14.20;;;5.77;;
30233;SDS011;17046;52.074;4.748;2022-10-28T09:12:04;15.47;;;6.40;;
30233;SDS011;17046;52.074;4.748;2022-10-28T09:17:18;12.03;;;6.13;;
30233;SDS011;17046;52.074;4.748;2022-10-28T09:19:50;17.37;;;6.47;;
30233;SDS011;17046;52.074;4.748;2022-10-28T09:22:20;16.93;;;6.20;;
30233;SDS011;17046;52.074;4.748;2022-10-28T09:25:05;15.10;;;6.47;;
30233;SDS011;17046;52.074;4.748;2022-10-28T09:28:05;19.97;;;9.87;;
30233;SDS011;17046;52.074;4.748;2022-10-28T09:30:36;13.00;;;6.30;;
30233;SDS011;17046;52.074;4.748;2022-10-28T09:33:21;14.87;;;6.40;;
30233;SDS011;17046;52.074;4.748;2022-10-28T09:35:59;13.83;;;6.17;;
30233;SDS011;17046;52.074;4.748;2022-10-28T09:38:27;13.17;;;5.77;;
30233;SDS011;17046;52.074;4.748;2022-10-28T09:41:17;15.30;;;5.83;;
30233;SDS011;17046;52.074;4.748;2022-10-28T09:46:27;13.18;;;5.70;;
30233;SDS011;17046;52.074;4.748;2022-10-28T09:48:56;15.47;;;5.80;;
30233;SDS011;17046;52.074;4.748;2022-10-28T09:51:28;16.10;;;6.00;;
30233;SDS011;17046;52.074;4.748;2022-10-28T09:53:58;14.90;;;5.80;;
30233;SDS011;17046;52.074;4.748;2022-10-28T09:56:25;15.73;;;6.83;;
30233;SDS011;17046;52.074;4.748;2022-10-28T09:58:52;16.63;;;5.97;;
30233;SDS011;17046;52.074;4.748;2022-10-28T10:01:19;17.17;;;5.97;;
30233;SDS011;17046;52.074;4.748;2022-10-28T10:03:49;15.37;;;6.00;;
30233;SDS011;17046;52.074;4.748;2022-10-28T10:06:17;18.00;;;6.37;;
30233;SDS011;17046;52.074;4.748;2022-10-28T10:08:46;17.73;;;6.80;;
30233;SDS011;17046;52.074;4.748;2022-10-28T10:13:56;14.10;;;5.90;;
30233;SDS011;17046;52.074;4.748;2022-10-28T10:16:37;13.23;;;6.10;;
30233;SDS011;17046;52.074;4.748;2022-10-28T10:19:17;16.33;;;6.10;;
30233;SDS011;17046;52.074;4.748;2022-10-28T10:21:47;18.10;;;6.28;;
30233;SDS011;17046;52.074;4.748;2022-10-28T10:24:33;18.83;;;6.03;;
30233;SDS011;17046;52.074;4.748;2022-10-28T10:27:11;15.17;;;6.10;;
30233;SDS011;17046;52.074;4.748;2022-10-28T10:29:44;12.73;;;6.05;;
30233;SDS011;17046;52.074;4.748;2022-10-28T10:32:14;17.05;;;6.75;;
30233;SDS011;17046;52.074;4.748;2022-10-28T10:34:43;14.98;;;6.50;;
30233;SDS011;17046;52.074;4.748;2022-10-28T10:37:17;13.63;;;5.25;;
30233;SDS011;17046;52.074;4.748;2022-10-28T10:39:45;15.07;;;5.60;;
30233;SDS011;17046;52.074;4.748;2022-10-28T10:42:40;14.65;;;5.68;;
30233;SDS011;17046;52.074;4.748;2022-10-28T10:47:57;15.18;;;5.43;;
30233;SDS011;17046;52.074;4.748;2022-10-28T10:50:31;17.85;;;5.85;;
30233;SDS011;17046;52.074;4.748;2022-10-28T10:52:58;16.98;;;5.68;;
30233;SDS011;17046;52.074;4.748;2022-10-28T10:58:06;19.67;;;6.10;;
30233;SDS011;17046;52.074;4.748;2022-10-28T11:00:49;14.55;;;5.60;;
30233;SDS011;17046;52.074;4.748;2022-10-28T11:03:18;16.83;;;6.45;;
30233;SDS011;17046;52.074;4.748;2022-10-28T11:05:52;16.52;;;5.78;;
30233;SDS011;17046;52.074;4.748;2022-10-28T11:08:38;16.80;;;5.55;;
30233;SDS011;17046;52.074;4.748;2022-10-28T11:11:11;16.67;;;6.15;;
30233;SDS011;17046;52.074;4.748;2022-10-28T11:13:40;16.33;;;5.97;;
30233;SDS011;17046;52.074;4.748;2022-10-28T11:16:14;14.38;;;4.88;;
30233;SDS011;17046;52.074;4.748;2022-10-28T11:18:46;16.83;;;5.60;;
30233;SDS011;17046;52.074;4.748;2022-10-28T11:21:20;14.80;;;5.25;;
30233;SDS011;17046;52.074;4.748;2022-10-28T11:26:50;16.77;;;5.35;;
30233;SDS011;17046;52.074;4.748;2022-10-28T11:29:39;20.02;;;5.32;;
30233;SDS011;17046;52.074;4.748;2022-10-28T11:32:19;17.20;;;5.32;;
30233;SDS011;17046;52.074;4.748;2022-10-28T11:35:05;16.70;;;5.22;;
30233;SDS011;17046;52.074;4.748;2022-10-28T11:37:42;14.52;;;4.50;;
30233;SDS011;17046;52.074;4.748;2022-10-28T11:40:26;21.67;;;4.70;;
30233;SDS011;17046;52.074;4.748;2022-10-28T11:51:28;12.10;;;4.63;;
30233;SDS011;17046;52.074;4.748;2022-10-28T11:54:15;15.30;;;4.50;;
30233;SDS011;17046;52.074;4.748;2022-10-28T12:02:54;15.80;;;5.82;;
30233;SDS011;17046;52.074;4.748;2022-10-28T12:05:41;17.42;;;4.57;;
30233;SDS011;17046;52.074;4.748;2022-10-28T12:08:29;17.25;;;5.10;;
30233;SDS011;17046;52.074;4.748;2022-10-28T12:16:52;22.02;;;5.75;;
30233;SDS011;17046;52.074;4.748;2022-10-28T12:19:31;16.75;;;5.03;;
30233;SDS011;17046;52.074;4.748;2022-10-28T12:22:03;11.73;;;4.28;;
30233;SDS011;17046;52.074;4.748;2022-10-28T12:24:34;13.70;;;4.68;;
30233;SDS011;17046;52.074;4.748;2022-10-28T12:27:11;15.70;;;5.10;;
30233;SDS011;17046;52.074;4.748;2022-10-28T12:29:47;17.75;;;5.05;;
30233;SDS011;17046;52.074;4.748;2022-10-28T12:32:18;14.20;;;4.60;;
30233;SDS011;17046;52.074;4.748;2022-10-28T12:37:31;11.70;;;4.47;;
30233;SDS011;17046;52.074;4.748;2022-10-28T12:40:11;15.02;;;4.45;;
30233;SDS011;17046;52.074;4.748;2022-10-28T12:42:46;19.20;;;5.10;;
30233;SDS011;17046;52.074;4.748;2022-10-28T12:45:25;14.68;;;4.85;;
30233;SDS011;17046;52.074;4.748;2022-10-28T12:48:00;19.40;;;6.03;;
30233;SDS011;17046;52.074;4.748;2022-10-28T12:50:43;17.55;;;4.90;;
30233;SDS011;17046;52.074;4.748;2022-10-28T12:53:17;15.02;;;5.25;;
30233;SDS011;17046;52.074;4.748;2022-10-28T12:55:56;15.15;;;5.53;;
30233;SDS011;17046;52.074;4.748;2022-10-28T12:58:28;16.02;;;4.82;;
30233;SDS011;17046;52.074;4.748;2022-10-28T13:01:33;24.80;;;5.53;;
30233;SDS011;17046;52.074;4.748;2022-10-28T13:04:00;12.40;;;4.68;;
30233;SDS011;17046;52.074;4.748;2022-10-28T13:11:54;11.63;;;4.43;;
30233;SDS011;17046;52.074;4.748;2022-10-28T13:28:19;15.43;;;5.13;;
30233;SDS011;17046;52.074;4.748;2022-10-28T13:30:53;17.30;;;4.55;;
30233;SDS011;17046;52.074;4.748;2022-10-28T13:33:23;16.50;;;4.45;;
30233;SDS011;17046;52.074;4.748;2022-10-28T13:35:50;13.25;;;4.22;;
30233;SDS011;17046;52.074;4.748;2022-10-28T13:38:19;13.35;;;4.35;;
30233;SDS011;17046;52.074;4.748;2022-10-28T13:49:35;16.17;;;4.20;;
30233;SDS011;17046;52.074;4.748;2022-10-28T13:52:03;14.05;;;4.03;;
30233;SDS011;17046;52.074;4.748;2022-10-28T14:00:00;17.02;;;4.38;;
30233;SDS011;17046;52.074;4.748;2022-10-28T14:02:40;12.90;;;4.13;;
30233;SDS011;17046;52.074;4.748;2022-10-28T14:05:11;14.70;;;4.55;;
30233;SDS011;17046;52.074;4.748;2022-10-28T14:07:50;13.27;;;5.05;;
30233;SDS011;17046;52.074;4.748;2022-10-28T14:10:29;14.10;;;4.47;;
30233;SDS011;17046;52.074;4.748;2022-10-28T14:13:00;12.60;;;4.00;;
30233;SDS011;17046;52.074;4.748;2022-10-28T14:15:39;18.50;;;4.32;;
30233;SDS011;17046;52.074;4.748;2022-10-28T14:44:09;9.55;;;3.35;;
30233;SDS011;17046;52.074;4.748;2022-10-28T14:49:32;15.95;;;3.97;;
30233;SDS011;17046;52.074;4.748;2022-10-28T14:52:05;11.18;;;4.00;;
30233;SDS011;17046;52.074;4.748;2022-10-28T14:54:36;12.32;;;3.70;;
30233;SDS011;17046;52.074;4.748;2022-10-28T14:57:12;11.30;;;3.78;;
30233;SDS011;17046;52.074;4.748;2022-10-28T14:59:41;12.20;;;3.53;;
30233;SDS011;17046;52.074;4.748;2022-10-28T15:02:20;17.13;;;3.80;;
30233;SDS011;17046;52.074;4.748;2022-10-28T15:04:56;15.50;;;3.75;;
30233;SDS011;17046;52.074;4.748;2022-10-28T15:07:28;13.83;;;3.97;;
30233;SDS011;17046;52.074;4.748;2022-10-28T15:09:55;12.35;;;3.78;;
30233;SDS011;17046;52.074;4.748;2022-10-28T15:12:21;13.30;;;4.05;;
30233;SDS011;17046;52.074;4.748;2022-10-28T15:14:51;18.08;;;3.70;;
30233;SDS011;17046;52.074;4.748;2022-10-28T15:17:25;14.53;;;3.77;;
30233;SDS011;17046;52.074;4.748;2022-10-28T15:19:57;10.95;;;3.63;;
30233;SDS011;17046;52.074;4.748;2022-10-28T15:22:25;15.68;;;3.80;;
30233;SDS011;17046;52.074;4.748;2022-10-28T15:25:08;13.15;;;3.63;;
30233;SDS011;17046;52.074;4.748;2022-10-28T15:27:37;12.93;;;3.47;;
30233;SDS011;17046;52.074;4.748;2022-10-28T15:32:43;9.75;;;3.40;;
30233;SDS011;17046;52.074;4.748;2022-10-28T15:37:53;15.57;;;3.60;;
30233;SDS011;17046;52.074;4.748;2022-10-28T15:40:21;13.45;;;3.45;;
30233;SDS011;17046;52.074;4.748;2022-10-28T15:45:24;11.47;;;3.33;;
30233;SDS011;17046;52.074;4.748;2022-10-28T15:47:51;15.97;;;4.00;;
30233;SDS011;17046;52.074;4.748;2022-10-28T15:50:20;12.43;;;3.60;;
30233;SDS011;17046;52.074;4.748;2022-10-28T15:52:53;14.75;;;3.83;;
30233;SDS011;17046;52.074;4.748;2022-10-28T15:55:39;15.30;;;3.33;;
30233;SDS011;17046;52.074;4.748;2022-10-28T16:00:34;16.70;;;3.73;;
30233;SDS011;17046;52.074;4.748;2022-10-28T16:03:23;14.23;;;3.40;;
30233;SDS011;17046;52.074;4.748;2022-10-28T16:05:50;14.27;;;3.77;;
30233;SDS011;17046;52.074;4.748;2022-10-28T16:10:53;14.15;;;4.38;;
30233;SDS011;17046;52.074;4.748;2022-10-28T16:16:06;22.90;;;4.80;;
30233;SDS011;17046;52.074;4.748;2022-10-28T16:18:47;13.63;;;3.55;;
30233;SDS011;17046;52.074;4.748;2022-10-28T16:21:24;13.90;;;3.70;;
30233;SDS011;17046;52.074;4.748;2022-10-28T16:23:51;18.30;;;4.27;;
30233;SDS011;17046;52.074;4.748;2022-10-28T16:26:23;16.93;;;4.13;;
30233;SDS011;17046;52.074;4.748;2022-10-28T16:28:49;14.73;;;3.87;;
30233;SDS011;17046;52.074;4.748;2022-10-28T16:31:15;18.52;;;3.78;;
30233;SDS011;17046;52.074;4.748;2022-10-28T16:33:42;14.77;;;3.97;;
30233;SDS011;17046;52.074;4.748;2022-10-28T16:36:08;15.83;;;4.23;;
30233;SDS011;17046;52.074;4.748;2022-10-28T16:38:34;18.13;;;4.40;;
30233;SDS011;17046;52.074;4.748;2022-10-28T16:41:00;15.10;;;4.17;;
30233;SDS011;17046;52.074;4.748;2022-10-28T16:43:28;18.00;;;4.33;;
30233;SDS011;17046;52.074;4.748;2022-10-28T16:45:55;17.00;;;3.87;;
30233;SDS011;17046;52.074;4.748;2022-10-28T16:48:22;14.67;;;4.43;;
30233;SDS011;17046;52.074;4.748;2022-10-28T16:50:50;14.70;;;4.37;;
30233;SDS011;17046;52.074;4.748;2022-10-28T16:53:21;21.37;;;4.90;;
30233;SDS011;17046;52.074;4.748;2022-10-28T16:55:47;18.20;;;4.50;;
30233;SDS011;17046;52.074;4.748;2022-10-28T16:58:12;12.57;;;3.97;;
30233;SDS011;17046;52.074;4.748;2022-10-28T17:00:38;14.00;;;3.97;;
30233;SDS011;17046;52.074;4.748;2022-10-28T17:03:05;16.27;;;4.13;;
30233;SDS011;17046;52.074;4.748;2022-10-28T17:05:31;18.40;;;4.13;;
30233;SDS011;17046;52.074;4.748;2022-10-28T17:07:57;16.03;;;4.50;;
30233;SDS011;17046;52.074;4.748;2022-10-28T17:10:23;16.03;;;4.00;;
30233;SDS011;17046;52.074;4.748;2022-10-28T17:12:50;16.53;;;4.20;;
30233;SDS011;17046;52.074;4.748;2022-10-28T17:15:16;16.10;;;4.13;;
30233;SDS011;17046;52.074;4.748;2022-10-28T17:17:42;19.57;;;4.53;;
30233;SDS011;17046;52.074;4.748;2022-10-28T17:20:07;17.60;;;3.87;;
30233;SDS011;17046;52.074;4.748;2022-10-28T17:22:33;14.53;;;3.50;;
30233;SDS011;17046;52.074;4.748;2022-10-28T17:24:59;13.17;;;3.63;;
30233;SDS011;17046;52.074;4.748;2022-10-28T17:27:24;15.57;;;3.83;;
30233;SDS011;17046;52.074;4.748;2022-10-28T17:29:50;14.50;;;3.57;;
30233;SDS011;17046;52.074;4.748;2022-10-28T17:32:16;13.03;;;3.57;;